sensor_id;sensor_type;location;lat;lon;timestamp;P1;durP1;ratioP1;P2;durP2;ratioP2
42726;SDS011;28372;56.832;60.658;2023-05-07T00:00:54;11.88;;;6.38;;
42726;SDS011;28372;56.832;60.658;2023-05-07T00:03:22;17.17;;;6.85;;
42726;SDS011;28372;56.832;60.658;2023-05-07T00:05:50;17.73;;;7.32;;
42726;SDS011;28372;56.832;60.658;2023-05-07T00:08:20;13.43;;;7.13;;
42726;SDS011;28372;56.832;60.658;2023-05-07T00:10:47;17.13;;;7.20;;
42726;SDS011;28372;56.832;60.658;2023-05-07T00:13:15;15.82;;;7.18;;
42726;SDS011;28372;56.832;60.658;2023-05-07T00:15:43;12.95;;;7.10;;
42726;SDS011;28372;56.832;60.658;2023-05-07T00:18:10;15.75;;;7.10;;
42726;SDS011;28372;56.832;60.658;2023-05-07T00:20:38;15.38;;;6.90;;
42726;SDS011;28372;56.832;60.658;2023-05-07T00:23:05;14.10;;;8.13;;
42726;SDS011;28372;56.832;60.658;2023-05-07T00:25:33;15.25;;;7.70;;
42726;SDS011;28372;56.832;60.658;2023-05-07T00:28:01;17.33;;;7.82;;
42726;SDS011;28372;56.832;60.658;2023-05-07T00:30:29;17.77;;;7.50;;
42726;SDS011;28372;56.832;60.658;2023-05-07T00:32:57;16.48;;;8.38;;
42726;SDS011;28372;56.832;60.658;2023-05-07T00:35:25;15.85;;;7.70;;
42726;SDS011;28372;56.832;60.658;2023-05-07T00:37:53;16.77;;;8.02;;
42726;SDS011;28372;56.832;60.658;2023-05-07T00:40:21;15.07;;;8.57;;
42726;SDS011;28372;56.832;60.658;2023-05-07T00:42:49;22.85;;;9.48;;
42726;SDS011;28372;56.832;60.658;2023-05-07T00:45:16;19.73;;;9.07;;
42726;SDS011;28372;56.832;60.658;2023-05-07T00:47:44;21.48;;;8.45;;
42726;SDS011;28372;56.832;60.658;2023-05-07T00:50:12;18.80;;;8.18;;
42726;SDS011;28372;56.832;60.658;2023-05-07T00:52:40;20.50;;;8.50;;
42726;SDS011;28372;56.832;60.658;2023-05-07T00:55:09;18.38;;;8.50;;
42726;SDS011;28372;56.832;60.658;2023-05-07T00:57:37;18.45;;;7.68;;
42726;SDS011;28372;56.832;60.658;2023-05-07T01:00:08;14.88;;;7.82;;
42726;SDS011;28372;56.832;60.658;2023-05-07T01:02:37;17.92;;;7.35;;
42726;SDS011;28372;56.832;60.658;2023-05-07T01:05:06;17.00;;;7.47;;
42726;SDS011;28372;56.832;60.658;2023-05-07T01:07:37;15.07;;;8.05;;
42726;SDS011;28372;56.832;60.658;2023-05-07T01:10:07;21.02;;;8.45;;
42726;SDS011;28372;56.832;60.658;2023-05-07T01:12:37;19.23;;;8.60;;
42726;SDS011;28372;56.832;60.658;2023-05-07T01:15:07;17.60;;;9.05;;
42726;SDS011;28372;56.832;60.658;2023-05-07T01:17:37;18.40;;;8.15;;
42726;SDS011;28372;56.832;60.658;2023-05-07T01:20:12;18.02;;;8.00;;
42726;SDS011;28372;56.832;60.658;2023-05-07T01:22:42;16.52;;;8.70;;
42726;SDS011;28372;56.832;60.658;2023-05-07T01:25:11;18.48;;;7.95;;
42726;SDS011;28372;56.832;60.658;2023-05-07T01:27:44;16.70;;;8.05;;
42726;SDS011;28372;56.832;60.658;2023-05-07T01:30:12;19.58;;;8.70;;
42726;SDS011;28372;56.832;60.658;2023-05-07T01:32:48;20.17;;;8.82;;
42726;SDS011;28372;56.832;60.658;2023-05-07T01:35:28;16.52;;;8.68;;
42726;SDS011;28372;56.832;60.658;2023-05-07T01:38:01;17.77;;;8.40;;
42726;SDS011;28372;56.832;60.658;2023-05-07T01:40:31;20.73;;;8.75;;
42726;SDS011;28372;56.832;60.658;2023-05-07T01:43:04;19.05;;;8.45;;
42726;SDS011;28372;56.832;60.658;2023-05-07T01:45:35;18.75;;;8.82;;
42726;SDS011;28372;56.832;60.658;2023-05-07T01:48:03;19.83;;;8.57;;
42726;SDS011;28372;56.832;60.658;2023-05-07T01:50:31;18.85;;;8.70;;
42726;SDS011;28372;56.832;60.658;2023-05-07T01:52:59;17.27;;;8.73;;
42726;SDS011;28372;56.832;60.658;2023-05-07T01:55:29;18.65;;;8.90;;
42726;SDS011;28372;56.832;60.658;2023-05-07T01:57:57;17.77;;;8.85;;
42726;SDS011;28372;56.832;60.658;2023-05-07T02:00:25;19.30;;;9.20;;
42726;SDS011;28372;56.832;60.658;2023-05-07T02:02:53;19.73;;;9.50;;
42726;SDS011;28372;56.832;60.658;2023-05-07T02:05:33;19.67;;;9.70;;
42726;SDS011;28372;56.832;60.658;2023-05-07T02:08:07;20.63;;;10.13;;
42726;SDS011;28372;56.832;60.658;2023-05-07T02:10:35;26.15;;;10.65;;
42726;SDS011;28372;56.832;60.658;2023-05-07T02:13:05;18.88;;;10.20;;
42726;SDS011;28372;56.832;60.658;2023-05-07T02:15:33;20.77;;;10.05;;
42726;SDS011;28372;56.832;60.658;2023-05-07T02:18:04;19.98;;;9.95;;
42726;SDS011;28372;56.832;60.658;2023-05-07T02:20:34;19.30;;;10.30;;
42726;SDS011;28372;56.832;60.658;2023-05-07T02:23:02;23.27;;;11.20;;
42726;SDS011;28372;56.832;60.658;2023-05-07T02:25:30;22.88;;;10.13;;
42726;SDS011;28372;56.832;60.658;2023-05-07T02:27:58;20.15;;;10.85;;
42726;SDS011;28372;56.832;60.658;2023-05-07T02:30:54;19.38;;;10.27;;
42726;SDS011;28372;56.832;60.658;2023-05-07T02:33:22;20.83;;;10.73;;
42726;SDS011;28372;56.832;60.658;2023-05-07T02:35:50;23.38;;;10.95;;
42726;SDS011;28372;56.832;60.658;2023-05-07T02:38:21;25.45;;;10.82;;
42726;SDS011;28372;56.832;60.658;2023-05-07T02:40:49;25.55;;;10.95;;
42726;SDS011;28372;56.832;60.658;2023-05-07T02:43:16;25.08;;;10.55;;
42726;SDS011;28372;56.832;60.658;2023-05-07T02:45:47;23.38;;;11.20;;
42726;SDS011;28372;56.832;60.658;2023-05-07T02:48:15;20.67;;;10.05;;
42726;SDS011;28372;56.832;60.658;2023-05-07T02:50:42;29.10;;;10.40;;
42726;SDS011;28372;56.832;60.658;2023-05-07T02:53:12;23.70;;;9.75;;
42726;SDS011;28372;56.832;60.658;2023-05-07T02:55:40;23.05;;;10.65;;
42726;SDS011;28372;56.832;60.658;2023-05-07T02:58:07;26.13;;;10.10;;
42726;SDS011;28372;56.832;60.658;2023-05-07T03:00:37;20.98;;;9.52;;
42726;SDS011;28372;56.832;60.658;2023-05-07T03:03:28;18.73;;;8.82;;
42726;SDS011;28372;56.832;60.658;2023-05-07T03:05:55;21.92;;;9.23;;
42726;SDS011;28372;56.832;60.658;2023-05-07T03:08:24;25.55;;;8.82;;
42726;SDS011;28372;56.832;60.658;2023-05-07T03:10:51;20.13;;;7.68;;
42726;SDS011;28372;56.832;60.658;2023-05-07T03:13:19;21.05;;;7.15;;
42726;SDS011;28372;56.832;60.658;2023-05-07T03:15:47;16.52;;;6.97;;
42726;SDS011;28372;56.832;60.658;2023-05-07T03:18:15;16.25;;;6.75;;
42726;SDS011;28372;56.832;60.658;2023-05-07T03:20:43;17.02;;;6.13;;
42726;SDS011;28372;56.832;60.658;2023-05-07T03:23:11;17.42;;;5.93;;
42726;SDS011;28372;56.832;60.658;2023-05-07T03:25:39;15.60;;;6.13;;
42726;SDS011;28372;56.832;60.658;2023-05-07T03:28:07;13.40;;;5.47;;
42726;SDS011;28372;56.832;60.658;2023-05-07T03:30:44;13.70;;;4.70;;
42726;SDS011;28372;56.832;60.658;2023-05-07T03:33:11;17.08;;;4.90;;
42726;SDS011;28372;56.832;60.658;2023-05-07T03:35:39;12.82;;;4.45;;
42726;SDS011;28372;56.832;60.658;2023-05-07T03:38:08;14.88;;;4.50;;
42726;SDS011;28372;56.832;60.658;2023-05-07T03:40:37;14.88;;;5.50;;
42726;SDS011;28372;56.832;60.658;2023-05-07T03:43:05;19.13;;;6.00;;
42726;SDS011;28372;56.832;60.658;2023-05-07T03:45:35;22.15;;;5.60;;
42726;SDS011;28372;56.832;60.658;2023-05-07T03:48:11;17.58;;;5.60;;
42726;SDS011;28372;56.832;60.658;2023-05-07T03:50:39;15.95;;;6.63;;
42726;SDS011;28372;56.832;60.658;2023-05-07T03:53:07;20.23;;;6.22;;
42726;SDS011;28372;56.832;60.658;2023-05-07T03:55:38;19.33;;;6.03;;
42726;SDS011;28372;56.832;60.658;2023-05-07T03:58:06;17.02;;;5.88;;
42726;SDS011;28372;56.832;60.658;2023-05-07T04:00:33;18.60;;;5.45;;
42726;SDS011;28372;56.832;60.658;2023-05-07T04:03:15;16.52;;;5.43;;
42726;SDS011;28372;56.832;60.658;2023-05-07T04:05:43;18.10;;;5.68;;
42726;SDS011;28372;56.832;60.658;2023-05-07T04:08:11;14.85;;;5.53;;
42726;SDS011;28372;56.832;60.658;2023-05-07T04:10:41;15.45;;;6.30;;
42726;SDS011;28372;56.832;60.658;2023-05-07T04:13:10;19.30;;;5.93;;
42726;SDS011;28372;56.832;60.658;2023-05-07T04:15:38;16.85;;;6.10;;
42726;SDS011;28372;56.832;60.658;2023-05-07T04:18:09;16.88;;;5.70;;
42726;SDS011;28372;56.832;60.658;2023-05-07T04:20:37;20.25;;;6.35;;
42726;SDS011;28372;56.832;60.658;2023-05-07T04:25:38;17.40;;;6.03;;
42726;SDS011;28372;56.832;60.658;2023-05-07T04:28:20;20.27;;;6.38;;
42726;SDS011;28372;56.832;60.658;2023-05-07T04:30:49;18.33;;;6.00;;
42726;SDS011;28372;56.832;60.658;2023-05-07T04:33:17;16.23;;;6.45;;
42726;SDS011;28372;56.832;60.658;2023-05-07T04:35:46;18.90;;;6.40;;
42726;SDS011;28372;56.832;60.658;2023-05-07T04:38:14;17.27;;;6.43;;
42726;SDS011;28372;56.832;60.658;2023-05-07T04:40:42;19.45;;;6.70;;
42726;SDS011;28372;56.832;60.658;2023-05-07T04:43:14;21.95;;;6.65;;
42726;SDS011;28372;56.832;60.658;2023-05-07T04:45:49;15.63;;;5.43;;
42726;SDS011;28372;56.832;60.658;2023-05-07T04:48:19;17.88;;;5.63;;
42726;SDS011;28372;56.832;60.658;2023-05-07T04:50:49;17.50;;;5.82;;
42726;SDS011;28372;56.832;60.658;2023-05-07T04:53:19;16.58;;;5.60;;
42726;SDS011;28372;56.832;60.658;2023-05-07T04:55:54;22.77;;;5.88;;
42726;SDS011;28372;56.832;60.658;2023-05-07T04:58:28;17.75;;;5.60;;
42726;SDS011;28372;56.832;60.658;2023-05-07T05:00:59;14.73;;;5.28;;
42726;SDS011;28372;56.832;60.658;2023-05-07T05:03:28;18.30;;;5.68;;
42726;SDS011;28372;56.832;60.658;2023-05-07T05:05:57;15.30;;;6.00;;
42726;SDS011;28372;56.832;60.658;2023-05-07T05:11:00;17.60;;;4.72;;
42726;SDS011;28372;56.832;60.658;2023-05-07T05:13:31;17.25;;;4.72;;
42726;SDS011;28372;56.832;60.658;2023-05-07T05:16:02;14.63;;;4.63;;
42726;SDS011;28372;56.832;60.658;2023-05-07T05:18:31;16.05;;;4.40;;
42726;SDS011;28372;56.832;60.658;2023-05-07T05:20:59;13.68;;;3.88;;
42726;SDS011;28372;56.832;60.658;2023-05-07T05:23:28;11.75;;;4.00;;
42726;SDS011;28372;56.832;60.658;2023-05-07T05:25:56;14.10;;;3.70;;
42726;SDS011;28372;56.832;60.658;2023-05-07T05:28:27;16.60;;;4.10;;
42726;SDS011;28372;56.832;60.658;2023-05-07T05:30:55;13.05;;;3.95;;
42726;SDS011;28372;56.832;60.658;2023-05-07T05:33:25;14.45;;;4.25;;
42726;SDS011;28372;56.832;60.658;2023-05-07T05:35:53;11.77;;;3.90;;
42726;SDS011;28372;56.832;60.658;2023-05-07T05:38:21;13.35;;;4.05;;
42726;SDS011;28372;56.832;60.658;2023-05-07T05:40:50;14.85;;;4.05;;
42726;SDS011;28372;56.832;60.658;2023-05-07T05:43:20;17.90;;;4.68;;
42726;SDS011;28372;56.832;60.658;2023-05-07T05:45:47;15.57;;;4.00;;
42726;SDS011;28372;56.832;60.658;2023-05-07T05:48:15;14.55;;;4.03;;
42726;SDS011;28372;56.832;60.658;2023-05-07T05:50:43;19.63;;;4.20;;
42726;SDS011;28372;56.832;60.658;2023-05-07T05:53:11;18.58;;;4.10;;
42726;SDS011;28372;56.832;60.658;2023-05-07T05:55:39;18.90;;;4.30;;
42726;SDS011;28372;56.832;60.658;2023-05-07T05:58:07;18.55;;;4.25;;
42726;SDS011;28372;56.832;60.658;2023-05-07T06:00:38;17.13;;;4.82;;
42726;SDS011;28372;56.832;60.658;2023-05-07T06:03:07;16.52;;;4.68;;
42726;SDS011;28372;56.832;60.658;2023-05-07T06:05:35;15.27;;;4.47;;
42726;SDS011;28372;56.832;60.658;2023-05-07T06:08:04;13.95;;;3.85;;
42726;SDS011;28372;56.832;60.658;2023-05-07T06:10:35;14.52;;;3.83;;
42726;SDS011;28372;56.832;60.658;2023-05-07T06:13:07;11.80;;;3.90;;
42726;SDS011;28372;56.832;60.658;2023-05-07T06:15:36;19.50;;;4.60;;
42726;SDS011;28372;56.832;60.658;2023-05-07T06:18:08;12.50;;;4.00;;
42726;SDS011;28372;56.832;60.658;2023-05-07T06:20:36;13.60;;;4.03;;
42726;SDS011;28372;56.832;60.658;2023-05-07T06:23:09;17.67;;;3.88;;
42726;SDS011;28372;56.832;60.658;2023-05-07T06:25:37;18.00;;;5.50;;
42726;SDS011;28372;56.832;60.658;2023-05-07T06:28:05;21.40;;;5.75;;
42726;SDS011;28372;56.832;60.658;2023-05-07T06:30:35;16.23;;;7.05;;
42726;SDS011;28372;56.832;60.658;2023-05-07T06:33:02;22.67;;;6.82;;
42726;SDS011;28372;56.832;60.658;2023-05-07T06:35:30;16.75;;;5.20;;
42726;SDS011;28372;56.832;60.658;2023-05-07T06:37:59;19.45;;;5.40;;
42726;SDS011;28372;56.832;60.658;2023-05-07T06:40:29;16.38;;;4.93;;
42726;SDS011;28372;56.832;60.658;2023-05-07T06:42:59;16.10;;;4.78;;
42726;SDS011;28372;56.832;60.658;2023-05-07T06:45:46;18.92;;;4.53;;
42726;SDS011;28372;56.832;60.658;2023-05-07T06:48:14;18.75;;;5.00;;
42726;SDS011;28372;56.832;60.658;2023-05-07T06:50:50;20.33;;;4.50;;
42726;SDS011;28372;56.832;60.658;2023-05-07T06:53:18;17.73;;;4.25;;
42726;SDS011;28372;56.832;60.658;2023-05-07T06:55:45;22.65;;;5.00;;
42726;SDS011;28372;56.832;60.658;2023-05-07T06:58:15;16.02;;;4.95;;
42726;SDS011;28372;56.832;60.658;2023-05-07T07:00:43;19.75;;;5.28;;
42726;SDS011;28372;56.832;60.658;2023-05-07T07:03:12;21.27;;;4.70;;
42726;SDS011;28372;56.832;60.658;2023-05-07T07:05:40;20.23;;;4.72;;
42726;SDS011;28372;56.832;60.658;2023-05-07T07:08:09;17.98;;;4.68;;
42726;SDS011;28372;56.832;60.658;2023-05-07T07:10:37;17.33;;;4.78;;
42726;SDS011;28372;56.832;60.658;2023-05-07T07:13:05;17.50;;;5.00;;
42726;SDS011;28372;56.832;60.658;2023-05-07T07:15:32;14.13;;;4.50;;
42726;SDS011;28372;56.832;60.658;2023-05-07T07:18:00;17.95;;;5.07;;
42726;SDS011;28372;56.832;60.658;2023-05-07T07:20:28;16.95;;;4.40;;
42726;SDS011;28372;56.832;60.658;2023-05-07T07:22:55;17.25;;;4.88;;
42726;SDS011;28372;56.832;60.658;2023-05-07T07:25:23;20.35;;;5.20;;
42726;SDS011;28372;56.832;60.658;2023-05-07T07:27:51;23.25;;;5.25;;
42726;SDS011;28372;56.832;60.658;2023-05-07T07:30:20;21.77;;;5.35;;
42726;SDS011;28372;56.832;60.658;2023-05-07T07:32:48;17.33;;;5.00;;
42726;SDS011;28372;56.832;60.658;2023-05-07T07:35:16;21.73;;;5.20;;
42726;SDS011;28372;56.832;60.658;2023-05-07T07:37:45;22.35;;;5.60;;
42726;SDS011;28372;56.832;60.658;2023-05-07T07:40:14;18.88;;;5.18;;
42726;SDS011;28372;56.832;60.658;2023-05-07T07:42:42;21.48;;;5.93;;
42726;SDS011;28372;56.832;60.658;2023-05-07T07:45:11;13.35;;;3.85;;
42726;SDS011;28372;56.832;60.658;2023-05-07T07:47:43;9.68;;;3.60;;
42726;SDS011;28372;56.832;60.658;2023-05-07T07:50:11;13.88;;;3.55;;
42726;SDS011;28372;56.832;60.658;2023-05-07T07:52:51;14.82;;;3.67;;
42726;SDS011;28372;56.832;60.658;2023-05-07T07:55:19;15.90;;;3.22;;
42726;SDS011;28372;56.832;60.658;2023-05-07T07:57:52;10.82;;;2.80;;
42726;SDS011;28372;56.832;60.658;2023-05-07T08:00:21;9.52;;;2.70;;
42726;SDS011;28372;56.832;60.658;2023-05-07T08:02:53;9.43;;;2.70;;
42726;SDS011;28372;56.832;60.658;2023-05-07T08:05:26;13.00;;;2.22;;
42726;SDS011;28372;56.832;60.658;2023-05-07T08:07:54;10.00;;;2.17;;
42726;SDS011;28372;56.832;60.658;2023-05-07T08:10:26;9.98;;;1.85;;
42726;SDS011;28372;56.832;60.658;2023-05-07T08:13:01;21.67;;;2.30;;
42726;SDS011;28372;56.832;60.658;2023-05-07T08:15:32;16.37;;;1.83;;
42726;SDS011;28372;56.832;60.658;2023-05-07T08:18:00;9.70;;;1.40;;
42726;SDS011;28372;56.832;60.658;2023-05-07T08:20:29;9.30;;;1.50;;
42726;SDS011;28372;56.832;60.658;2023-05-07T08:22:57;12.02;;;1.67;;
42726;SDS011;28372;56.832;60.658;2023-05-07T08:25:26;10.00;;;1.77;;
42726;SDS011;28372;56.832;60.658;2023-05-07T08:27:54;5.88;;;1.17;;
42726;SDS011;28372;56.832;60.658;2023-05-07T08:30:22;5.85;;;1.50;;
42726;SDS011;28372;56.832;60.658;2023-05-07T08:32:51;7.15;;;1.15;;
42726;SDS011;28372;56.832;60.658;2023-05-07T08:35:19;8.23;;;1.23;;
42726;SDS011;28372;56.832;60.658;2023-05-07T08:37:46;8.93;;;1.23;;
42726;SDS011;28372;56.832;60.658;2023-05-07T08:40:16;5.05;;;1.13;;
42726;SDS011;28372;56.832;60.658;2023-05-07T08:42:44;7.53;;;1.67;;
42726;SDS011;28372;56.832;60.658;2023-05-07T08:45:13;7.95;;;1.17;;
42726;SDS011;28372;56.832;60.658;2023-05-07T08:47:44;21.92;;;1.95;;
42726;SDS011;28372;56.832;60.658;2023-05-07T08:50:16;12.02;;;1.45;;
42726;SDS011;28372;56.832;60.658;2023-05-07T08:52:45;7.35;;;0.98;;
42726;SDS011;28372;56.832;60.658;2023-05-07T08:55:13;7.45;;;1.20;;
42726;SDS011;28372;56.832;60.658;2023-05-07T08:57:41;5.35;;;0.80;;
42726;SDS011;28372;56.832;60.658;2023-05-07T09:00:10;7.50;;;0.73;;
42726;SDS011;28372;56.832;60.658;2023-05-07T09:02:40;3.05;;;1.05;;
42726;SDS011;28372;56.832;60.658;2023-05-07T09:05:08;8.88;;;1.65;;
42726;SDS011;28372;56.832;60.658;2023-05-07T09:07:38;3.65;;;0.82;;
42726;SDS011;28372;56.832;60.658;2023-05-07T09:10:06;3.70;;;1.00;;
42726;SDS011;28372;56.832;60.658;2023-05-07T09:12:37;7.60;;;1.02;;
42726;SDS011;28372;56.832;60.658;2023-05-07T09:15:07;7.10;;;0.90;;
42726;SDS011;28372;56.832;60.658;2023-05-07T09:17:36;5.95;;;0.93;;
42726;SDS011;28372;56.832;60.658;2023-05-07T09:20:05;3.08;;;0.60;;
42726;SDS011;28372;56.832;60.658;2023-05-07T09:22:38;8.63;;;1.00;;
42726;SDS011;28372;56.832;60.658;2023-05-07T09:25:10;5.30;;;0.60;;
42726;SDS011;28372;56.832;60.658;2023-05-07T09:27:38;3.40;;;0.50;;
42726;SDS011;28372;56.832;60.658;2023-05-07T09:30:08;7.07;;;0.77;;
42726;SDS011;28372;56.832;60.658;2023-05-07T09:32:37;5.88;;;0.60;;
42726;SDS011;28372;56.832;60.658;2023-05-07T09:35:16;2.40;;;0.73;;
42726;SDS011;28372;56.832;60.658;2023-05-07T09:37:49;2.67;;;0.50;;
42726;SDS011;28372;56.832;60.658;2023-05-07T09:40:24;3.00;;;0.90;;
42726;SDS011;28372;56.832;60.658;2023-05-07T09:42:54;4.30;;;0.60;;
42726;SDS011;28372;56.832;60.658;2023-05-07T09:45:27;4.10;;;0.68;;
42726;SDS011;28372;56.832;60.658;2023-05-07T09:47:58;2.47;;;0.90;;
42726;SDS011;28372;56.832;60.658;2023-05-07T09:50:28;4.45;;;0.80;;
42726;SDS011;28372;56.832;60.658;2023-05-07T09:53:00;4.50;;;0.47;;
42726;SDS011;28372;56.832;60.658;2023-05-07T09:55:29;3.78;;;0.55;;
42726;SDS011;28372;56.832;60.658;2023-05-07T09:57:57;2.97;;;0.52;;
42726;SDS011;28372;56.832;60.658;2023-05-07T10:00:28;2.78;;;0.60;;
42726;SDS011;28372;56.832;60.658;2023-05-07T10:03:06;4.35;;;0.50;;
42726;SDS011;28372;56.832;60.658;2023-05-07T10:05:43;3.13;;;0.52;;
42726;SDS011;28372;56.832;60.658;2023-05-07T10:08:14;2.67;;;0.50;;
42726;SDS011;28372;56.832;60.658;2023-05-07T10:10:46;3.08;;;0.85;;
42726;SDS011;28372;56.832;60.658;2023-05-07T10:13:19;4.47;;;0.63;;
42726;SDS011;28372;56.832;60.658;2023-05-07T10:15:50;3.28;;;0.73;;
42726;SDS011;28372;56.832;60.658;2023-05-07T10:18:19;3.60;;;0.65;;
42726;SDS011;28372;56.832;60.658;2023-05-07T10:20:51;1.38;;;0.45;;
42726;SDS011;28372;56.832;60.658;2023-05-07T10:23:23;4.60;;;0.90;;
42726;SDS011;28372;56.832;60.658;2023-05-07T10:25:56;2.67;;;0.80;;
42726;SDS011;28372;56.832;60.658;2023-05-07T10:28:30;4.63;;;0.55;;
42726;SDS011;28372;56.832;60.658;2023-05-07T10:31:07;3.25;;;0.40;;
42726;SDS011;28372;56.832;60.658;2023-05-07T10:33:45;2.42;;;0.52;;
42726;SDS011;28372;56.832;60.658;2023-05-07T10:36:18;3.67;;;0.40;;
42726;SDS011;28372;56.832;60.658;2023-05-07T10:38:47;2.65;;;0.73;;
42726;SDS011;28372;56.832;60.658;2023-05-07T10:41:16;3.58;;;0.70;;
42726;SDS011;28372;56.832;60.658;2023-05-07T10:43:46;3.60;;;0.70;;
42726;SDS011;28372;56.832;60.658;2023-05-07T10:46:24;2.15;;;0.63;;
42726;SDS011;28372;56.832;60.658;2023-05-07T10:51:38;2.90;;;0.50;;
42726;SDS011;28372;56.832;60.658;2023-05-07T10:54:19;1.88;;;0.60;;
42726;SDS011;28372;56.832;60.658;2023-05-07T10:56:55;0.68;;;0.50;;
42726;SDS011;28372;56.832;60.658;2023-05-07T10:59:30;1.50;;;0.60;;
42726;SDS011;28372;56.832;60.658;2023-05-07T11:02:14;2.03;;;0.60;;
42726;SDS011;28372;56.832;60.658;2023-05-07T11:07:59;0.95;;;0.40;;
42726;SDS011;28372;56.832;60.658;2023-05-07T11:16:43;2.88;;;0.80;;
42726;SDS011;28372;56.832;60.658;2023-05-07T11:25:09;0.82;;;0.40;;
42726;SDS011;28372;56.832;60.658;2023-05-07T11:27:37;3.50;;;0.50;;
42726;SDS011;28372;56.832;60.658;2023-05-07T11:30:05;3.80;;;0.50;;
42726;SDS011;28372;56.832;60.658;2023-05-07T11:32:33;0.93;;;0.40;;
42726;SDS011;28372;56.832;60.658;2023-05-07T11:35:01;3.30;;;0.63;;
42726;SDS011;28372;56.832;60.658;2023-05-07T11:37:30;0.98;;;0.50;;
42726;SDS011;28372;56.832;60.658;2023-05-07T11:40:04;2.15;;;1.20;;
42726;SDS011;28372;56.832;60.658;2023-05-07T11:42:34;3.85;;;1.70;;
42726;SDS011;28372;56.832;60.658;2023-05-07T11:45:05;4.60;;;0.50;;
42726;SDS011;28372;56.832;60.658;2023-05-07T11:47:33;2.40;;;0.88;;
42726;SDS011;28372;56.832;60.658;2023-05-07T11:50:05;4.55;;;1.55;;
42726;SDS011;28372;56.832;60.658;2023-05-07T11:52:35;2.67;;;0.70;;
42726;SDS011;28372;56.832;60.658;2023-05-07T11:55:03;2.53;;;0.63;;
42726;SDS011;28372;56.832;60.658;2023-05-07T11:57:32;2.20;;;0.60;;
42726;SDS011;28372;56.832;60.658;2023-05-07T12:00:02;1.05;;;0.43;;
42726;SDS011;28372;56.832;60.658;2023-05-07T12:02:40;3.13;;;0.50;;
42726;SDS011;28372;56.832;60.658;2023-05-07T12:05:09;1.45;;;0.60;;
42726;SDS011;28372;56.832;60.658;2023-05-07T12:07:37;2.38;;;0.73;;
42726;SDS011;28372;56.832;60.658;2023-05-07T12:10:05;1.35;;;0.65;;
42726;SDS011;28372;56.832;60.658;2023-05-07T12:12:40;2.45;;;0.60;;
42726;SDS011;28372;56.832;60.658;2023-05-07T12:15:09;1.42;;;0.70;;
42726;SDS011;28372;56.832;60.658;2023-05-07T12:17:38;1.77;;;0.90;;
42726;SDS011;28372;56.832;60.658;2023-05-07T12:20:06;1.08;;;0.70;;
42726;SDS011;28372;56.832;60.658;2023-05-07T12:22:34;1.45;;;0.80;;
42726;SDS011;28372;56.832;60.658;2023-05-07T12:25:03;2.20;;;0.80;;
42726;SDS011;28372;56.832;60.658;2023-05-07T12:27:32;2.00;;;0.90;;
42726;SDS011;28372;56.832;60.658;2023-05-07T12:29:59;1.90;;;0.90;;
42726;SDS011;28372;56.832;60.658;2023-05-07T12:32:30;1.02;;;0.60;;
42726;SDS011;28372;56.832;60.658;2023-05-07T12:35:05;3.58;;;1.08;;
42726;SDS011;28372;56.832;60.658;2023-05-07T12:37:33;1.65;;;0.77;;
42726;SDS011;28372;56.832;60.658;2023-05-07T12:40:03;2.85;;;0.85;;
42726;SDS011;28372;56.832;60.658;2023-05-07T12:42:40;1.70;;;0.88;;
42726;SDS011;28372;56.832;60.658;2023-05-07T12:45:13;2.90;;;0.70;;
42726;SDS011;28372;56.832;60.658;2023-05-07T12:47:47;2.63;;;0.80;;
42726;SDS011;28372;56.832;60.658;2023-05-07T12:50:15;3.05;;;1.40;;
42726;SDS011;28372;56.832;60.658;2023-05-07T12:52:43;2.85;;;1.10;;
42726;SDS011;28372;56.832;60.658;2023-05-07T12:55:17;1.80;;;0.90;;
42726;SDS011;28372;56.832;60.658;2023-05-07T12:57:47;1.98;;;1.00;;
42726;SDS011;28372;56.832;60.658;2023-05-07T13:00:16;2.42;;;1.10;;
42726;SDS011;28372;56.832;60.658;2023-05-07T13:02:44;4.07;;;1.10;;
42726;SDS011;28372;56.832;60.658;2023-05-07T13:05:12;5.13;;;1.38;;
42726;SDS011;28372;56.832;60.658;2023-05-07T13:07:40;3.90;;;1.30;;
42726;SDS011;28372;56.832;60.658;2023-05-07T13:10:19;3.22;;;1.35;;
42726;SDS011;28372;56.832;60.658;2023-05-07T13:12:46;2.50;;;1.33;;
42726;SDS011;28372;56.832;60.658;2023-05-07T13:15:14;3.00;;;1.40;;
42726;SDS011;28372;56.832;60.658;2023-05-07T13:17:43;3.40;;;1.30;;
42726;SDS011;28372;56.832;60.658;2023-05-07T13:20:11;3.00;;;1.40;;
42726;SDS011;28372;56.832;60.658;2023-05-07T13:22:42;3.20;;;1.40;;
42726;SDS011;28372;56.832;60.658;2023-05-07T13:25:10;4.35;;;1.58;;
42726;SDS011;28372;56.832;60.658;2023-05-07T13:27:38;4.00;;;1.60;;
42726;SDS011;28372;56.832;60.658;2023-05-07T13:30:06;3.08;;;1.40;;
42726;SDS011;28372;56.832;60.658;2023-05-07T13:32:34;3.67;;;1.30;;
42726;SDS011;28372;56.832;60.658;2023-05-07T13:35:02;3.03;;;1.48;;
42726;SDS011;28372;56.832;60.658;2023-05-07T13:37:30;6.57;;;1.40;;
42726;SDS011;28372;56.832;60.658;2023-05-07T13:39:57;3.00;;;1.17;;
42726;SDS011;28372;56.832;60.658;2023-05-07T13:42:25;2.55;;;1.10;;
42726;SDS011;28372;56.832;60.658;2023-05-07T13:44:53;3.53;;;1.70;;
42726;SDS011;28372;56.832;60.658;2023-05-07T13:47:21;5.38;;;1.98;;
42726;SDS011;28372;56.832;60.658;2023-05-07T13:49:50;3.50;;;1.20;;
42726;SDS011;28372;56.832;60.658;2023-05-07T13:52:18;2.80;;;1.10;;
42726;SDS011;28372;56.832;60.658;2023-05-07T13:54:47;3.83;;;0.82;;
42726;SDS011;28372;56.832;60.658;2023-05-07T13:57:14;2.80;;;1.10;;
42726;SDS011;28372;56.832;60.658;2023-05-07T13:59:42;3.60;;;1.17;;
42726;SDS011;28372;56.832;60.658;2023-05-07T14:02:09;5.10;;;1.10;;
42726;SDS011;28372;56.832;60.658;2023-05-07T14:04:37;2.53;;;1.30;;
42726;SDS011;28372;56.832;60.658;2023-05-07T14:07:05;2.88;;;1.20;;
42726;SDS011;28372;56.832;60.658;2023-05-07T14:09:32;2.58;;;1.10;;
42726;SDS011;28372;56.832;60.658;2023-05-07T14:12:00;4.22;;;1.20;;
42726;SDS011;28372;56.832;60.658;2023-05-07T14:14:28;5.97;;;1.33;;
42726;SDS011;28372;56.832;60.658;2023-05-07T14:16:56;2.70;;;1.20;;
42726;SDS011;28372;56.832;60.658;2023-05-07T14:19:25;2.58;;;1.00;;
42726;SDS011;28372;56.832;60.658;2023-05-07T14:21:52;3.17;;;1.00;;
42726;SDS011;28372;56.832;60.658;2023-05-07T14:24:20;3.95;;;1.00;;
42726;SDS011;28372;56.832;60.658;2023-05-07T14:27:04;3.05;;;1.00;;
42726;SDS011;28372;56.832;60.658;2023-05-07T14:29:31;3.38;;;0.90;;
42726;SDS011;28372;56.832;60.658;2023-05-07T14:31:59;3.65;;;1.10;;
42726;SDS011;28372;56.832;60.658;2023-05-07T14:34:27;3.92;;;1.23;;
42726;SDS011;28372;56.832;60.658;2023-05-07T14:36:55;4.47;;;1.25;;
42726;SDS011;28372;56.832;60.658;2023-05-07T14:39:22;2.10;;;1.00;;
42726;SDS011;28372;56.832;60.658;2023-05-07T14:41:50;3.10;;;1.10;;
42726;SDS011;28372;56.832;60.658;2023-05-07T14:44:18;2.90;;;1.10;;
42726;SDS011;28372;56.832;60.658;2023-05-07T14:46:45;4.15;;;1.15;;
42726;SDS011;28372;56.832;60.658;2023-05-07T14:49:13;5.00;;;1.23;;
42726;SDS011;28372;56.832;60.658;2023-05-07T14:51:44;5.75;;;1.13;;
42726;SDS011;28372;56.832;60.658;2023-05-07T14:54:13;2.35;;;1.00;;
42726;SDS011;28372;56.832;60.658;2023-05-07T14:56:41;3.33;;;1.23;;
42726;SDS011;28372;56.832;60.658;2023-05-07T14:59:09;2.67;;;1.02;;
42726;SDS011;28372;56.832;60.658;2023-05-07T15:01:37;4.07;;;1.23;;
42726;SDS011;28372;56.832;60.658;2023-05-07T15:04:05;3.20;;;1.42;;